sensor_id;sensor_type;location;lat;lon;timestamp;P1;durP1;ratioP1;P2;durP2;ratioP2
52590;SDS011;38483;42.620;25.394;2022-09-21T00:01:10;2.20;;;2.00;;
52590;SDS011;38483;42.620;25.394;2022-09-21T00:03:42;3.00;;;2.07;;
52590;SDS011;38483;42.620;25.394;2022-09-21T00:06:12;2.90;;;1.70;;
52590;SDS011;38483;42.620;25.394;2022-09-21T00:08:45;4.03;;;1.90;;
52590;SDS011;38483;42.620;25.394;2022-09-21T00:11:17;3.17;;;2.10;;
52590;SDS011;38483;42.620;25.394;2022-09-21T00:13:46;3.00;;;1.70;;
52590;SDS011;38483;42.620;25.394;2022-09-21T00:16:13;5.13;;;2.23;;
52590;SDS011;38483;42.620;25.394;2022-09-21T00:18:42;2.20;;;2.00;;
52590;SDS011;38483;42.620;25.394;2022-09-21T00:21:10;1.77;;;1.60;;
52590;SDS011;38483;42.620;25.394;2022-09-21T00:23:40;2.37;;;1.70;;
52590;SDS011;38483;42.620;25.394;2022-09-21T00:26:11;2.37;;;1.77;;
52590;SDS011;38483;42.620;25.394;2022-09-21T00:28:43;1.83;;;1.70;;
52590;SDS011;38483;42.620;25.394;2022-09-21T00:31:14;1.40;;;1.30;;
52590;SDS011;38483;42.620;25.394;2022-09-21T00:33:43;1.57;;;1.47;;
52590;SDS011;38483;42.620;25.394;2022-09-21T00:36:15;2.27;;;1.50;;
52590;SDS011;38483;42.620;25.394;2022-09-21T00:38:50;4.47;;;2.27;;
52590;SDS011;38483;42.620;25.394;2022-09-21T00:41:28;2.03;;;1.90;;
52590;SDS011;38483;42.620;25.394;2022-09-21T00:44:18;1.97;;;1.70;;
52590;SDS011;38483;42.620;25.394;2022-09-21T00:46:54;1.90;;;1.70;;
52590;SDS011;38483;42.620;25.394;2022-09-21T00:49:24;2.97;;;2.60;;
52590;SDS011;38483;42.620;25.394;2022-09-21T00:51:53;2.93;;;2.00;;
52590;SDS011;38483;42.620;25.394;2022-09-21T00:54:24;1.83;;;1.60;;
52590;SDS011;38483;42.620;25.394;2022-09-21T00:56:55;2.47;;;1.80;;
52590;SDS011;38483;42.620;25.394;2022-09-21T00:59:25;2.20;;;2.00;;
52590;SDS011;38483;42.620;25.394;2022-09-21T01:01:56;1.63;;;1.53;;
52590;SDS011;38483;42.620;25.394;2022-09-21T01:04:25;2.70;;;1.97;;
52590;SDS011;38483;42.620;25.394;2022-09-21T01:06:54;1.80;;;1.70;;
52590;SDS011;38483;42.620;25.394;2022-09-21T01:09:23;1.63;;;1.53;;
52590;SDS011;38483;42.620;25.394;2022-09-21T01:17:30;1.83;;;1.73;;
52590;SDS011;38483;42.620;25.394;2022-09-21T01:23:41;2.97;;;1.97;;
52590;SDS011;38483;42.620;25.394;2022-09-21T01:31:53;2.90;;;1.90;;
52590;SDS011;38483;42.620;25.394;2022-09-21T01:34:29;2.87;;;2.00;;
52590;SDS011;38483;42.620;25.394;2022-09-21T01:37:03;1.77;;;1.63;;
52590;SDS011;38483;42.620;25.394;2022-09-21T01:39:43;2.90;;;1.87;;
52590;SDS011;38483;42.620;25.394;2022-09-21T01:42:14;3.17;;;1.93;;
52590;SDS011;38483;42.620;25.394;2022-09-21T01:44:43;1.63;;;1.50;;
52590;SDS011;38483;42.620;25.394;2022-09-21T01:47:13;2.33;;;1.77;;
52590;SDS011;38483;42.620;25.394;2022-09-21T01:49:46;1.70;;;1.60;;
52590;SDS011;38483;42.620;25.394;2022-09-21T01:52:18;1.93;;;1.30;;
52590;SDS011;38483;42.620;25.394;2022-09-21T01:54:53;1.70;;;1.60;;
52590;SDS011;38483;42.620;25.394;2022-09-21T02:00:21;2.73;;;1.60;;
52590;SDS011;38483;42.620;25.394;2022-09-21T02:02:54;3.10;;;1.80;;
52590;SDS011;38483;42.620;25.394;2022-09-21T02:05:25;2.03;;;1.83;;
52590;SDS011;38483;42.620;25.394;2022-09-21T02:07:56;1.80;;;1.70;;
52590;SDS011;38483;42.620;25.394;2022-09-21T02:10:32;1.80;;;1.70;;
52590;SDS011;38483;42.620;25.394;2022-09-21T02:13:05;3.10;;;1.90;;
52590;SDS011;38483;42.620;25.394;2022-09-21T02:24:21;3.63;;;2.10;;
52590;SDS011;38483;42.620;25.394;2022-09-21T02:27:09;2.97;;;1.90;;
52590;SDS011;38483;42.620;25.394;2022-09-21T02:30:02;2.50;;;1.93;;
52590;SDS011;38483;42.620;25.394;2022-09-21T02:40:53;2.93;;;1.90;;
52590;SDS011;38483;42.620;25.394;2022-09-21T02:46:13;2.70;;;2.00;;
52590;SDS011;38483;42.620;25.394;2022-09-21T02:49:09;2.20;;;2.00;;
52590;SDS011;38483;42.620;25.394;2022-09-21T02:51:48;2.03;;;1.83;;
52590;SDS011;38483;42.620;25.394;2022-09-21T02:54:19;3.07;;;1.90;;
52590;SDS011;38483;42.620;25.394;2022-09-21T02:56:50;2.30;;;2.10;;
52590;SDS011;38483;42.620;25.394;2022-09-21T02:59:19;2.90;;;1.97;;
52590;SDS011;38483;42.620;25.394;2022-09-21T03:01:49;2.83;;;2.03;;
52590;SDS011;38483;42.620;25.394;2022-09-21T03:04:17;2.13;;;1.93;;
52590;SDS011;38483;42.620;25.394;2022-09-21T03:06:44;1.97;;;1.73;;
52590;SDS011;38483;42.620;25.394;2022-09-21T03:09:11;2.47;;;2.27;;
52590;SDS011;38483;42.620;25.394;2022-09-21T03:11:39;1.83;;;1.60;;
52590;SDS011;38483;42.620;25.394;2022-09-21T03:14:09;2.10;;;1.90;;
52590;SDS011;38483;42.620;25.394;2022-09-21T03:16:36;7.27;;;2.90;;
52590;SDS011;38483;42.620;25.394;2022-09-21T03:19:04;7.07;;;3.00;;
52590;SDS011;38483;42.620;25.394;2022-09-21T03:21:31;6.43;;;3.23;;
52590;SDS011;38483;42.620;25.394;2022-09-21T03:23:58;2.60;;;2.40;;
52590;SDS011;38483;42.620;25.394;2022-09-21T03:26:25;4.47;;;2.10;;
52590;SDS011;38483;42.620;25.394;2022-09-21T03:28:52;2.90;;;1.90;;
52590;SDS011;38483;42.620;25.394;2022-09-21T03:31:20;2.50;;;2.30;;
52590;SDS011;38483;42.620;25.394;2022-09-21T03:33:48;2.10;;;1.90;;
52590;SDS011;38483;42.620;25.394;2022-09-21T03:36:15;3.83;;;2.00;;
52590;SDS011;38483;42.620;25.394;2022-09-21T03:38:42;3.73;;;1.80;;
52590;SDS011;38483;42.620;25.394;2022-09-21T03:41:16;1.70;;;1.60;;
52590;SDS011;38483;42.620;25.394;2022-09-21T03:43:44;2.33;;;1.90;;
52590;SDS011;38483;42.620;25.394;2022-09-21T03:46:12;2.43;;;2.23;;
52590;SDS011;38483;42.620;25.394;2022-09-21T03:48:46;2.20;;;2.00;;
52590;SDS011;38483;42.620;25.394;2022-09-21T03:51:13;2.57;;;2.20;;
52590;SDS011;38483;42.620;25.394;2022-09-21T03:53:40;2.77;;;2.30;;
52590;SDS011;38483;42.620;25.394;2022-09-21T03:56:07;2.17;;;1.97;;
52590;SDS011;38483;42.620;25.394;2022-09-21T03:58:34;2.50;;;2.30;;
52590;SDS011;38483;42.620;25.394;2022-09-21T04:01:01;2.73;;;2.30;;
52590;SDS011;38483;42.620;25.394;2022-09-21T04:03:30;1.80;;;1.70;;
52590;SDS011;38483;42.620;25.394;2022-09-21T04:05:56;3.33;;;2.13;;
52590;SDS011;38483;42.620;25.394;2022-09-21T04:08:25;2.43;;;2.10;;
52590;SDS011;38483;42.620;25.394;2022-09-21T04:10:52;3.80;;;2.50;;
52590;SDS011;38483;42.620;25.394;2022-09-21T04:13:19;2.47;;;2.27;;
52590;SDS011;38483;42.620;25.394;2022-09-21T04:15:46;3.30;;;2.73;;
52590;SDS011;38483;42.620;25.394;2022-09-21T04:18:13;7.17;;;2.37;;
52590;SDS011;38483;42.620;25.394;2022-09-21T04:20:40;2.27;;;2.07;;
52590;SDS011;38483;42.620;25.394;2022-09-21T04:23:07;4.70;;;2.30;;
52590;SDS011;38483;42.620;25.394;2022-09-21T04:25:35;5.63;;;3.77;;
52590;SDS011;38483;42.620;25.394;2022-09-21T04:28:02;5.10;;;2.90;;
52590;SDS011;38483;42.620;25.394;2022-09-21T04:30:29;3.17;;;2.87;;
52590;SDS011;38483;42.620;25.394;2022-09-21T04:33:02;3.90;;;2.47;;
52590;SDS011;38483;42.620;25.394;2022-09-21T04:35:29;6.67;;;4.90;;
52590;SDS011;38483;42.620;25.394;2022-09-21T04:37:56;8.50;;;4.43;;
52590;SDS011;38483;42.620;25.394;2022-09-21T04:40:23;2.97;;;2.37;;
52590;SDS011;38483;42.620;25.394;2022-09-21T04:42:51;4.23;;;3.10;;
52590;SDS011;38483;42.620;25.394;2022-09-21T04:45:21;7.23;;;3.50;;
52590;SDS011;38483;42.620;25.394;2022-09-21T04:47:48;4.00;;;3.53;;
52590;SDS011;38483;42.620;25.394;2022-09-21T04:50:15;3.57;;;3.00;;
52590;SDS011;38483;42.620;25.394;2022-09-21T04:52:42;5.50;;;2.47;;
52590;SDS011;38483;42.620;25.394;2022-09-21T04:55:09;11.00;;;6.67;;
52590;SDS011;38483;42.620;25.394;2022-09-21T04:57:37;11.73;;;5.23;;
52590;SDS011;38483;42.620;25.394;2022-09-21T05:00:04;5.20;;;3.43;;
52590;SDS011;38483;42.620;25.394;2022-09-21T05:02:31;8.33;;;3.67;;
52590;SDS011;38483;42.620;25.394;2022-09-21T05:04:58;3.00;;;2.70;;
52590;SDS011;38483;42.620;25.394;2022-09-21T05:07:25;4.50;;;2.80;;
52590;SDS011;38483;42.620;25.394;2022-09-21T05:09:52;7.37;;;3.40;;
52590;SDS011;38483;42.620;25.394;2022-09-21T05:12:30;9.70;;;3.47;;
52590;SDS011;38483;42.620;25.394;2022-09-21T05:14:58;3.73;;;2.90;;
52590;SDS011;38483;42.620;25.394;2022-09-21T05:17:25;3.53;;;2.30;;
52590;SDS011;38483;42.620;25.394;2022-09-21T05:19:52;5.40;;;2.80;;
52590;SDS011;38483;42.620;25.394;2022-09-21T05:22:19;5.50;;;2.50;;
52590;SDS011;38483;42.620;25.394;2022-09-21T05:24:46;4.53;;;2.80;;
52590;SDS011;38483;42.620;25.394;2022-09-21T05:27:14;4.57;;;3.00;;
52590;SDS011;38483;42.620;25.394;2022-09-21T05:29:41;3.67;;;2.73;;
52590;SDS011;38483;42.620;25.394;2022-09-21T05:32:19;4.57;;;3.20;;
52590;SDS011;38483;42.620;25.394;2022-09-21T05:37:48;7.83;;;3.00;;
52590;SDS011;38483;42.620;25.394;2022-09-21T05:40:21;3.27;;;2.97;;
52590;SDS011;38483;42.620;25.394;2022-09-21T05:42:48;2.97;;;2.50;;
52590;SDS011;38483;42.620;25.394;2022-09-21T05:45:16;2.97;;;2.20;;
52590;SDS011;38483;42.620;25.394;2022-09-21T05:47:52;2.77;;;2.20;;
52590;SDS011;38483;42.620;25.394;2022-09-21T06:05:12;3.10;;;1.80;;
52590;SDS011;38483;42.620;25.394;2022-09-21T06:07:40;4.90;;;3.97;;
52590;SDS011;38483;42.620;25.394;2022-09-21T06:10:08;3.37;;;2.10;;
52590;SDS011;38483;42.620;25.394;2022-09-21T06:12:37;5.93;;;4.30;;
52590;SDS011;38483;42.620;25.394;2022-09-21T06:15:06;2.93;;;2.67;;
52590;SDS011;38483;42.620;25.394;2022-09-21T06:17:37;2.33;;;2.13;;
52590;SDS011;38483;42.620;25.394;2022-09-21T06:20:05;3.23;;;2.50;;
52590;SDS011;38483;42.620;25.394;2022-09-21T06:22:33;2.30;;;2.00;;
52590;SDS011;38483;42.620;25.394;2022-09-21T06:25:00;2.27;;;2.07;;
52590;SDS011;38483;42.620;25.394;2022-09-21T06:27:28;2.47;;;2.27;;
52590;SDS011;38483;42.620;25.394;2022-09-21T06:29:55;6.10;;;2.07;;
52590;SDS011;38483;42.620;25.394;2022-09-21T06:32:22;3.90;;;1.77;;
52590;SDS011;38483;42.620;25.394;2022-09-21T06:34:49;2.60;;;1.97;;
52590;SDS011;38483;42.620;25.394;2022-09-21T06:37:16;2.67;;;1.70;;
52590;SDS011;38483;42.620;25.394;2022-09-21T06:39:44;4.83;;;2.57;;
52590;SDS011;38483;42.620;25.394;2022-09-21T06:42:10;4.03;;;2.50;;
52590;SDS011;38483;42.620;25.394;2022-09-21T06:44:38;3.33;;;2.20;;
52590;SDS011;38483;42.620;25.394;2022-09-21T06:47:05;4.07;;;2.50;;
52590;SDS011;38483;42.620;25.394;2022-09-21T06:49:32;6.63;;;4.53;;
52590;SDS011;38483;42.620;25.394;2022-09-21T06:51:59;7.10;;;2.77;;
52590;SDS011;38483;42.620;25.394;2022-09-21T06:54:27;5.10;;;3.13;;
52590;SDS011;38483;42.620;25.394;2022-09-21T06:56:53;7.33;;;3.00;;
52590;SDS011;38483;42.620;25.394;2022-09-21T06:59:25;2.20;;;1.50;;
52590;SDS011;38483;42.620;25.394;2022-09-21T07:01:53;1.77;;;1.43;;
52590;SDS011;38483;42.620;25.394;2022-09-21T07:04:23;3.43;;;2.30;;
52590;SDS011;38483;42.620;25.394;2022-09-21T07:06:51;5.40;;;2.37;;
52590;SDS011;38483;42.620;25.394;2022-09-21T07:09:18;2.87;;;2.07;;
52590;SDS011;38483;42.620;25.394;2022-09-21T07:12:04;4.07;;;2.80;;
52590;SDS011;38483;42.620;25.394;2022-09-21T07:14:33;10.70;;;3.37;;
52590;SDS011;38483;42.620;25.394;2022-09-21T07:17:00;4.83;;;3.03;;
52590;SDS011;38483;42.620;25.394;2022-09-21T07:19:27;6.60;;;3.73;;
52590;SDS011;38483;42.620;25.394;2022-09-21T07:21:54;2.20;;;1.53;;
52590;SDS011;38483;42.620;25.394;2022-09-21T07:24:21;1.50;;;1.00;;
52590;SDS011;38483;42.620;25.394;2022-09-21T07:26:48;2.03;;;1.23;;
52590;SDS011;38483;42.620;25.394;2022-09-21T07:29:16;2.07;;;0.97;;
52590;SDS011;38483;42.620;25.394;2022-09-21T07:31:43;2.87;;;0.87;;
52590;SDS011;38483;42.620;25.394;2022-09-21T07:34:11;2.63;;;0.87;;
52590;SDS011;38483;42.620;25.394;2022-09-21T07:36:41;1.77;;;0.97;;
52590;SDS011;38483;42.620;25.394;2022-09-21T07:39:08;1.23;;;0.90;;
52590;SDS011;38483;42.620;25.394;2022-09-21T07:41:36;1.07;;;0.97;;
52590;SDS011;38483;42.620;25.394;2022-09-21T07:44:03;0.70;;;0.70;;
52590;SDS011;38483;42.620;25.394;2022-09-21T07:46:30;2.50;;;0.90;;
52590;SDS011;38483;42.620;25.394;2022-09-21T07:48:57;0.80;;;0.80;;
52590;SDS011;38483;42.620;25.394;2022-09-21T07:51:25;2.50;;;2.13;;
52590;SDS011;38483;42.620;25.394;2022-09-21T07:56:53;1.30;;;0.93;;
52590;SDS011;38483;42.620;25.394;2022-09-21T07:59:38;2.23;;;0.97;;
52590;SDS011;38483;42.620;25.394;2022-09-21T08:02:12;2.43;;;0.90;;
52590;SDS011;38483;42.620;25.394;2022-09-21T08:04:39;0.80;;;0.80;;
52590;SDS011;38483;42.620;25.394;2022-09-21T08:07:08;1.47;;;0.90;;
52590;SDS011;38483;42.620;25.394;2022-09-21T08:09:35;1.00;;;1.00;;
52590;SDS011;38483;42.620;25.394;2022-09-21T08:12:02;1.00;;;0.80;;
52590;SDS011;38483;42.620;25.394;2022-09-21T08:14:29;3.77;;;0.90;;
52590;SDS011;38483;42.620;25.394;2022-09-21T08:16:57;0.87;;;0.80;;
52590;SDS011;38483;42.620;25.394;2022-09-21T08:19:24;3.10;;;0.87;;
52590;SDS011;38483;42.620;25.394;2022-09-21T08:21:53;0.93;;;0.70;;
52590;SDS011;38483;42.620;25.394;2022-09-21T08:24:23;0.93;;;0.87;;
52590;SDS011;38483;42.620;25.394;2022-09-21T08:26:54;1.00;;;0.77;;
52590;SDS011;38483;42.620;25.394;2022-09-21T08:29:31;0.90;;;0.90;;
52590;SDS011;38483;42.620;25.394;2022-09-21T08:31:58;0.80;;;0.80;;
52590;SDS011;38483;42.620;25.394;2022-09-21T08:34:25;0.87;;;0.73;;
52590;SDS011;38483;42.620;25.394;2022-09-21T08:36:51;1.10;;;1.00;;
52590;SDS011;38483;42.620;25.394;2022-09-21T08:39:21;2.03;;;1.10;;
52590;SDS011;38483;42.620;25.394;2022-09-21T08:41:58;1.30;;;1.00;;
52590;SDS011;38483;42.620;25.394;2022-09-21T08:44:49;0.93;;;0.80;;
52590;SDS011;38483;42.620;25.394;2022-09-21T08:52:41;2.13;;;1.10;;
52590;SDS011;38483;42.620;25.394;2022-09-21T08:55:15;1.03;;;0.87;;
52590;SDS011;38483;42.620;25.394;2022-09-21T08:57:45;1.47;;;1.00;;
52590;SDS011;38483;42.620;25.394;2022-09-21T09:00:16;1.77;;;1.07;;
52590;SDS011;38483;42.620;25.394;2022-09-21T09:03:17;0.80;;;0.80;;
52590;SDS011;38483;42.620;25.394;2022-09-21T09:05:55;5.53;;;4.17;;
52590;SDS011;38483;42.620;25.394;2022-09-21T09:25:39;1.87;;;1.33;;
52590;SDS011;38483;42.620;25.394;2022-09-21T09:28:14;0.83;;;0.83;;
52590;SDS011;38483;42.620;25.394;2022-09-21T09:30:51;1.00;;;0.90;;
52590;SDS011;38483;42.620;25.394;2022-09-21T09:33:27;0.80;;;0.80;;
52590;SDS011;38483;42.620;25.394;2022-09-21T09:36:04;0.80;;;0.80;;
52590;SDS011;38483;42.620;25.394;2022-09-21T09:52:32;0.80;;;0.80;;
52590;SDS011;38483;42.620;25.394;2022-09-21T09:55:00;2.33;;;0.90;;
52590;SDS011;38483;42.620;25.394;2022-09-21T09:57:37;1.13;;;1.03;;
52590;SDS011;38483;42.620;25.394;2022-09-21T10:00:05;0.97;;;0.77;;
52590;SDS011;38483;42.620;25.394;2022-09-21T10:02:47;1.07;;;0.80;;
52590;SDS011;38483;42.620;25.394;2022-09-21T10:07:56;1.00;;;0.90;;
52590;SDS011;38483;42.620;25.394;2022-09-21T10:10:57;0.70;;;0.70;;
52590;SDS011;38483;42.620;25.394;2022-09-21T10:13:27;1.07;;;0.80;;
52590;SDS011;38483;42.620;25.394;2022-09-21T10:15:57;1.20;;;0.97;;
52590;SDS011;38483;42.620;25.394;2022-09-21T10:18:29;2.10;;;1.07;;
52590;SDS011;38483;42.620;25.394;2022-09-21T10:21:06;1.10;;;0.80;;
52590;SDS011;38483;42.620;25.394;2022-09-21T10:23:35;1.10;;;1.00;;
52590;SDS011;38483;42.620;25.394;2022-09-21T10:26:09;0.70;;;0.70;;
52590;SDS011;38483;42.620;25.394;2022-09-21T10:28:55;1.50;;;1.40;;
52590;SDS011;38483;42.620;25.394;2022-09-21T10:31:28;3.03;;;1.00;;
52590;SDS011;38483;42.620;25.394;2022-09-21T10:34:14;1.10;;;1.00;;
52590;SDS011;38483;42.620;25.394;2022-09-21T10:36:47;0.97;;;0.73;;
52590;SDS011;38483;42.620;25.394;2022-09-21T10:42:17;2.60;;;1.00;;
52590;SDS011;38483;42.620;25.394;2022-09-21T10:45:31;0.80;;;0.80;;
52590;SDS011;38483;42.620;25.394;2022-09-21T10:47:56;3.37;;;0.80;;
52590;SDS011;38483;42.620;25.394;2022-09-21T10:50:36;1.73;;;0.90;;
52590;SDS011;38483;42.620;25.394;2022-09-21T11:01:47;3.33;;;1.17;;
52590;SDS011;38483;42.620;25.394;2022-09-21T11:04:27;3.57;;;1.63;;
52590;SDS011;38483;42.620;25.394;2022-09-21T11:07:02;2.43;;;1.40;;
52590;SDS011;38483;42.620;25.394;2022-09-21T11:09:46;1.73;;;1.07;;
52590;SDS011;38483;42.620;25.394;2022-09-21T11:15:15;2.60;;;1.10;;
52590;SDS011;38483;42.620;25.394;2022-09-21T11:17:52;2.57;;;1.97;;
52590;SDS011;38483;42.620;25.394;2022-09-21T11:29:07;1.70;;;0.83;;
52590;SDS011;38483;42.620;25.394;2022-09-21T11:34:13;1.03;;;1.00;;
52590;SDS011;38483;42.620;25.394;2022-09-21T11:37:07;2.33;;;1.00;;
52590;SDS011;38483;42.620;25.394;2022-09-21T11:39:50;1.10;;;1.00;;
52590;SDS011;38483;42.620;25.394;2022-09-21T11:42:45;2.43;;;1.57;;
52590;SDS011;38483;42.620;25.394;2022-09-21T11:48:29;1.20;;;1.10;;
52590;SDS011;38483;42.620;25.394;2022-09-21T11:54:13;1.10;;;1.00;;
52590;SDS011;38483;42.620;25.394;2022-09-21T11:59:27;4.40;;;2.17;;
52590;SDS011;38483;42.620;25.394;2022-09-21T12:16:46;1.33;;;0.80;;
52590;SDS011;38483;42.620;25.394;2022-09-21T12:22:18;1.60;;;0.77;;
52590;SDS011;38483;42.620;25.394;2022-09-21T12:24:52;1.30;;;0.90;;
52590;SDS011;38483;42.620;25.394;2022-09-21T12:30:11;1.13;;;1.03;;
52590;SDS011;38483;42.620;25.394;2022-09-21T12:32:50;2.77;;;1.20;;
52590;SDS011;38483;42.620;25.394;2022-09-21T12:35:59;0.80;;;0.80;;
52590;SDS011;38483;42.620;25.394;2022-09-21T12:38:35;1.00;;;0.90;;
52590;SDS011;38483;42.620;25.394;2022-09-21T12:41:26;0.60;;;0.60;;
52590;SDS011;38483;42.620;25.394;2022-09-21T12:48:05;0.80;;;0.70;;
52590;SDS011;38483;42.620;25.394;2022-09-21T12:50:14;0.87;;;0.77;;
52590;SDS011;38483;42.620;25.394;2022-09-21T12:52:51;4.60;;;3.07;;
52590;SDS011;38483;42.620;25.394;2022-09-21T12:58:04;1.10;;;0.87;;
52590;SDS011;38483;42.620;25.394;2022-09-21T13:00:47;0.80;;;0.70;;
52590;SDS011;38483;42.620;25.394;2022-09-21T13:09:17;1.20;;;0.90;;
52590;SDS011;38483;42.620;25.394;2022-09-21T13:11:56;4.87;;;2.10;;
52590;SDS011;38483;42.620;25.394;2022-09-21T13:14:27;9.67;;;4.47;;
52590;SDS011;38483;42.620;25.394;2022-09-21T13:17:02;2.23;;;1.13;;
52590;SDS011;38483;42.620;25.394;2022-09-21T13:19:32;1.63;;;1.10;;
52590;SDS011;38483;42.620;25.394;2022-09-21T13:30:48;1.20;;;0.80;;
52590;SDS011;38483;42.620;25.394;2022-09-21T13:44:55;1.10;;;1.00;;
52590;SDS011;38483;42.620;25.394;2022-09-21T13:47:30;1.20;;;0.90;;
52590;SDS011;38483;42.620;25.394;2022-09-21T13:50:49;0.60;;;0.60;;
52590;SDS011;38483;42.620;25.394;2022-09-21T13:53:22;0.80;;;0.80;;
52590;SDS011;38483;42.620;25.394;2022-09-21T13:56:20;0.80;;;0.67;;
52590;SDS011;38483;42.620;25.394;2022-09-21T13:58:54;1.37;;;1.23;;
52590;SDS011;38483;42.620;25.394;2022-09-21T14:01:31;1.40;;;0.83;;
52590;SDS011;38483;42.620;25.394;2022-09-21T14:04:23;0.93;;;0.80;;
52590;SDS011;38483;42.620;25.394;2022-09-21T14:07:01;1.27;;;1.10;;
52590;SDS011;38483;42.620;25.394;2022-09-21T14:09:40;1.10;;;1.00;;
52590;SDS011;38483;42.620;25.394;2022-09-21T14:12:25;1.03;;;0.80;;
52590;SDS011;38483;42.620;25.394;2022-09-21T14:21:06;1.57;;;1.00;;
52590;SDS011;38483;42.620;25.394;2022-09-21T14:26:34;2.57;;;0.77;;
52590;SDS011;38483;42.620;25.394;2022-09-21T14:29:31;0.90;;;0.90;;
52590;SDS011;38483;42.620;25.394;2022-09-21T14:32:11;0.80;;;0.80;;
52590;SDS011;38483;42.620;25.394;2022-09-21T14:34:46;0.87;;;0.60;;
52590;SDS011;38483;42.620;25.394;2022-09-21T14:37:29;0.90;;;0.90;;
52590;SDS011;38483;42.620;25.394;2022-09-21T14:39:59;0.70;;;0.70;;
52590;SDS011;38483;42.620;25.394;2022-09-21T14:42:32;0.60;;;0.60;;
52590;SDS011;38483;42.620;25.394;2022-09-21T14:45:00;2.57;;;0.80;;
52590;SDS011;38483;42.620;25.394;2022-09-21T14:50:17;1.10;;;1.00;;
52590;SDS011;38483;42.620;25.394;2022-09-21T15:01:41;1.57;;;1.00;;
52590;SDS011;38483;42.620;25.394;2022-09-21T15:04:45;3.37;;;2.10;;
52590;SDS011;38483;42.620;25.394;2022-09-21T15:07:24;3.70;;;2.70;;
52590;SDS011;38483;42.620;25.394;2022-09-21T15:16:45;1.07;;;0.97;;
52590;SDS011;38483;42.620;25.394;2022-09-21T15:21:55;0.83;;;0.70;;
52590;SDS011;38483;42.620;25.394;2022-09-21T15:24:51;1.67;;;1.00;;
52590;SDS011;38483;42.620;25.394;2022-09-21T15:27:22;1.70;;;0.90;;
52590;SDS011;38483;42.620;25.394;2022-09-21T15:29:53;1.40;;;0.80;;
52590;SDS011;38483;42.620;25.394;2022-09-21T15:32:29;0.90;;;0.90;;
52590;SDS011;38483;42.620;25.394;2022-09-21T15:34:58;0.93;;;0.90;;
52590;SDS011;38483;42.620;25.394;2022-09-21T15:37:33;0.77;;;0.77;;
52590;SDS011;38483;42.620;25.394;2022-09-21T15:40:03;1.27;;;1.10;;
52590;SDS011;38483;42.620;25.394;2022-09-21T15:42:47;0.87;;;0.73;;
52590;SDS011;38483;42.620;25.394;2022-09-21T15:48:28;0.83;;;0.80;;
52590;SDS011;38483;42.620;25.394;2022-09-21T15:51:10;1.30;;;1.20;;
52590;SDS011;38483;42.620;25.394;2022-09-21T15:54:39;2.57;;;1.30;;
52590;SDS011;38483;42.620;25.394;2022-09-21T15:56:58;1.50;;;1.03;;
52590;SDS011;38483;42.620;25.394;2022-09-21T15:59:33;1.60;;;1.10;;
52590;SDS011;38483;42.620;25.394;2022-09-21T16:02:08;1.20;;;1.10;;
52590;SDS011;38483;42.620;25.394;2022-09-21T16:04:38;1.20;;;1.10;;
52590;SDS011;38483;42.620;25.394;2022-09-21T16:07:25;2.00;;;1.10;;
52590;SDS011;38483;42.620;25.394;2022-09-21T16:10:00;4.70;;;1.73;;
52590;SDS011;38483;42.620;25.394;2022-09-21T16:12:41;1.87;;;1.50;;
52590;SDS011;38483;42.620;25.394;2022-09-21T16:15:17;2.43;;;1.43;;
52590;SDS011;38483;42.620;25.394;2022-09-21T16:18:04;1.87;;;1.50;;
52590;SDS011;38483;42.620;25.394;2022-09-21T16:20:39;1.30;;;1.20;;
52590;SDS011;38483;42.620;25.394;2022-09-21T16:23:15;1.83;;;1.40;;
52590;SDS011;38483;42.620;25.394;2022-09-21T16:25:44;1.87;;;1.17;;
52590;SDS011;38483;42.620;25.394;2022-09-21T16:28:27;2.77;;;1.60;;
52590;SDS011;38483;42.620;25.394;2022-09-21T16:38:55;2.33;;;1.97;;
52590;SDS011;38483;42.620;25.394;2022-09-21T16:41:22;2.67;;;2.17;;
52590;SDS011;38483;42.620;25.394;2022-09-21T16:43:54;2.93;;;2.13;;
52590;SDS011;38483;42.620;25.394;2022-09-21T16:46:22;4.90;;;2.50;;
52590;SDS011;38483;42.620;25.394;2022-09-21T16:48:52;2.20;;;1.90;;
52590;SDS011;38483;42.620;25.394;2022-09-21T16:51:21;2.20;;;1.80;;
52590;SDS011;38483;42.620;25.394;2022-09-21T16:53:50;1.87;;;1.43;;
52590;SDS011;38483;42.620;25.394;2022-09-21T16:56:17;1.70;;;1.30;;
52590;SDS011;38483;42.620;25.394;2022-09-21T16:58:47;1.90;;;1.40;;
52590;SDS011;38483;42.620;25.394;2022-09-21T17:01:15;1.40;;;1.30;;
52590;SDS011;38483;42.620;25.394;2022-09-21T17:03:46;1.37;;;1.20;;
52590;SDS011;38483;42.620;25.394;2022-09-21T17:06:14;1.30;;;1.20;;
52590;SDS011;38483;42.620;25.394;2022-09-21T17:08:43;1.40;;;1.20;;
52590;SDS011;38483;42.620;25.394;2022-09-21T17:11:17;2.23;;;1.47;;
52590;SDS011;38483;42.620;25.394;2022-09-21T17:13:46;2.17;;;1.40;;
52590;SDS011;38483;42.620;25.394;2022-09-21T17:16:14;1.50;;;1.40;;
52590;SDS011;38483;42.620;25.394;2022-09-21T17:18:47;2.93;;;2.10;;
52590;SDS011;38483;42.620;25.394;2022-09-21T17:21:15;1.57;;;1.40;;
52590;SDS011;38483;42.620;25.394;2022-09-21T17:23:42;1.77;;;1.37;;
52590;SDS011;38483;42.620;25.394;2022-09-21T17:26:16;1.40;;;1.30;;
52590;SDS011;38483;42.620;25.394;2022-09-21T17:28:44;1.53;;;1.40;;
52590;SDS011;38483;42.620;25.394;2022-09-21T17:31:14;1.40;;;1.30;;
52590;SDS011;38483;42.620;25.394;2022-09-21T17:33:42;1.37;;;1.17;;
52590;SDS011;38483;42.620;25.394;2022-09-21T17:36:12;1.80;;;1.33;;
52590;SDS011;38483;42.620;25.394;2022-09-21T17:38:40;1.37;;;1.27;;
52590;SDS011;38483;42.620;25.394;2022-09-21T17:41:28;1.23;;;1.13;;
52590;SDS011;38483;42.620;25.394;2022-09-21T17:44:08;1.30;;;1.20;;
52590;SDS011;38483;42.620;25.394;2022-09-21T17:49:41;1.60;;;1.43;;
52590;SDS011;38483;42.620;25.394;2022-09-21T17:52:10;2.93;;;1.30;;
52590;SDS011;38483;42.620;25.394;2022-09-21T17:54:59;1.97;;;1.37;;
52590;SDS011;38483;42.620;25.394;2022-09-21T18:00:36;1.67;;;1.57;;
52590;SDS011;38483;42.620;25.394;2022-09-21T18:03:19;2.13;;;1.33;;
52590;SDS011;38483;42.620;25.394;2022-09-21T18:05:49;1.73;;;1.50;;
52590;SDS011;38483;42.620;25.394;2022-09-21T18:08:37;3.70;;;1.47;;
52590;SDS011;38483;42.620;25.394;2022-09-21T18:11:11;2.33;;;1.50;;
52590;SDS011;38483;42.620;25.394;2022-09-21T18:22:52;1.20;;;1.10;;
52590;SDS011;38483;42.620;25.394;2022-09-21T18:25:37;3.17;;;1.20;;
52590;SDS011;38483;42.620;25.394;2022-09-21T18:28:18;4.63;;;2.37;;
52590;SDS011;38483;42.620;25.394;2022-09-21T18:42:01;1.40;;;1.30;;
52590;SDS011;38483;42.620;25.394;2022-09-21T18:44:48;1.20;;;1.10;;
52590;SDS011;38483;42.620;25.394;2022-09-21T18:47:25;2.97;;;1.07;;
52590;SDS011;38483;42.620;25.394;2022-09-21T18:50:06;2.00;;;1.10;;
52590;SDS011;38483;42.620;25.394;2022-09-21T18:53:01;1.03;;;0.90;;
52590;SDS011;38483;42.620;25.394;2022-09-21T18:55:48;2.13;;;1.30;;
52590;SDS011;38483;42.620;25.394;2022-09-21T18:58:16;1.60;;;1.27;;
52590;SDS011;38483;42.620;25.394;2022-09-21T19:00:43;2.70;;;1.17;;
52590;SDS011;38483;42.620;25.394;2022-09-21T19:03:11;2.00;;;1.80;;
52590;SDS011;38483;42.620;25.394;2022-09-21T19:05:47;1.33;;;1.13;;
52590;SDS011;38483;42.620;25.394;2022-09-21T19:08:17;2.03;;;1.70;;
52590;SDS011;38483;42.620;25.394;2022-09-21T19:11:01;2.70;;;1.50;;
52590;SDS011;38483;42.620;25.394;2022-09-21T19:30:06;1.47;;;1.27;;
52590;SDS011;38483;42.620;25.394;2022-09-21T19:32:44;1.40;;;1.20;;
52590;SDS011;38483;42.620;25.394;2022-09-21T19:35:28;1.30;;;1.00;;
52590;SDS011;38483;42.620;25.394;2022-09-21T19:37:59;1.73;;;1.20;;